Time;durP1;ratioP1;P1;durP2;ratioP2;P2;SDS_P1;SDS_P2;PMS_P1;PMS_P2;Temp;Humidity;BMP_temperature;BMP_pressure;BME280_temperature;BME280_humidity;BME280_pressure;Samples;Min_cycle;Max_cycle;Signal;HPM_P1;HPM_P2
2023/05/20 00:00:30;;;;;;;14.02;6.03;;;;;;;;;;6188789;23;20016;-88
2023/05/20 00:02:56;;;;;;;16.50;6.95;;;;;;;;;;6162357;23;20063;-88
2023/05/20 00:05:23;;;;;;;13.60;6.50;;;;;;;;;;6189737;23;20390;-88
2023/05/20 00:07:51;;;;;;;12.20;6.45;;;;;;;;;;6163966;23;20079;-88
2023/05/20 00:10:17;;;;;;;10.93;6.43;;;;;;;;;;6164487;23;20061;-87
2023/05/20 00:12:43;;;;;;;14.57;6.30;;;;;;;;;;6162884;23;20017;-87
2023/05/20 00:15:12;;;;;;;16.85;7.18;;;;;;;;;;6189018;23;20017;-87
2023/05/20 00:17:38;;;;;;;18.20;6.63;;;;;;;;;;6163222;23;20029;-87
2023/05/20 00:20:04;;;;;;;14.00;5.70;;;;;;;;;;6189671;23;20031;-88
2023/05/20 00:22:31;;;;;;;13.07;6.00;;;;;;;;;;6163038;23;20099;-88
2023/05/20 00:24:57;;;;;;;13.57;6.47;;;;;;;;;;6163158;23;20013;-88
2023/05/20 00:27:23;;;;;;;14.70;6.50;;;;;;;;;;6138473;23;20090;-88
2023/05/20 00:29:49;;;;;;;15.30;6.80;;;;;;;;;;6164864;23;20096;-88
2023/05/20 00:32:15;;;;;;;13.80;6.93;;;;;;;;;;6138009;23;20013;-87
2023/05/20 00:34:43;;;;;;;14.80;6.30;;;;;;;;;;6164392;23;20392;-87
2023/05/20 00:37:09;;;;;;;15.40;7.28;;;;;;;;;;6164982;23;20016;-88
2023/05/20 00:39:35;;;;;;;14.43;6.70;;;;;;;;;;6165693;23;20017;-87
2023/05/20 00:42:02;;;;;;;16.92;7.60;;;;;;;;;;6141357;23;20017;-88
2023/05/20 00:44:28;;;;;;;12.52;6.60;;;;;;;;;;6140713;23;20052;-88
2023/05/20 00:46:57;;;;;;;16.17;7.65;;;;;;;;;;6191601;23;20021;-88
2023/05/20 00:49:23;;;;;;;13.57;6.88;;;;;;;;;;6140975;23;20013;-87
2023/05/20 00:51:51;;;;;;;18.35;7.90;;;;;;;;;;6165743;23;20072;-88
2023/05/20 00:54:18;;;;;;;14.98;7.47;;;;;;;;;;6165590;23;20035;-86
2023/05/20 00:56:44;;;;;;;15.40;6.97;;;;;;;;;;6139618;23;20092;-87
2023/05/20 00:59:10;;;;;;;15.35;7.47;;;;;;;;;;6164732;23;20041;-88
2023/05/20 01:01:36;;;;;;;12.88;6.68;;;;;;;;;;6164376;23;20065;-88
2023/05/20 01:04:02;;;;;;;16.90;6.93;;;;;;;;;;6140145;23;20017;-87
2023/05/20 01:06:28;;;;;;;11.63;6.63;;;;;;;;;;6164901;23;20024;-88
2023/05/20 01:08:54;;;;;;;13.48;7.43;;;;;;;;;;6163905;23;20028;-89
2023/05/20 01:11:25;;;;;;;16.48;7.45;;;;;;;;;;6164813;23;20092;-88
2023/05/20 01:13:54;;;;;;;15.95;7.00;;;;;;;;;;6190654;23;20039;-88
2023/05/20 01:16:22;;;;;;;15.73;6.90;;;;;;;;;;6163722;23;20024;-88
2023/05/20 01:18:48;;;;;;;17.85;7.47;;;;;;;;;;6139797;23;20025;-88
2023/05/20 01:21:15;;;;;;;14.18;7.55;;;;;;;;;;6191679;23;20088;-88
2023/05/20 01:23:41;;;;;;;15.55;7.32;;;;;;;;;;6190578;23;20069;-88
2023/05/20 01:26:08;;;;;;;13.55;6.72;;;;;;;;;;6191325;23;20150;-89
2023/05/20 01:28:35;;;;;;;14.48;7.30;;;;;;;;;;6164987;23;20088;-88
2023/05/20 01:31:03;;;;;;;13.07;6.53;;;;;;;;;;6164448;23;20009;-87
2023/05/20 01:33:29;;;;;;;12.25;6.25;;;;;;;;;;6164950;23;20405;-88
2023/05/20 01:35:56;;;;;;;10.75;6.10;;;;;;;;;;6191531;23;20009;-88
2023/05/20 01:38:23;;;;;;;14.43;6.82;;;;;;;;;;6190214;23;20103;-88
2023/05/20 01:40:49;;;;;;;12.65;6.97;;;;;;;;;;6164328;23;20016;-88
2023/05/20 01:43:16;;;;;;;15.52;7.32;;;;;;;;;;6164590;23;20017;-88
2023/05/20 01:45:43;;;;;;;12.68;6.80;;;;;;;;;;6163732;23;20120;-88
2023/05/20 01:48:11;;;;;;;13.32;7.28;;;;;;;;;;6190406;23;20047;-88
2023/05/20 01:50:38;;;;;;;14.73;7.40;;;;;;;;;;6140357;23;20091;-88
2023/05/20 01:53:04;;;;;;;14.45;6.75;;;;;;;;;;6190604;23;20088;-89
2023/05/20 01:55:30;;;;;;;13.23;6.97;;;;;;;;;;6140669;23;20017;-88
2023/05/20 01:57:56;;;;;;;15.18;7.18;;;;;;;;;;6191542;23;20080;-88
2023/05/20 02:00:22;;;;;;;14.13;7.10;;;;;;;;;;6163602;23;20383;-88
2023/05/20 02:02:48;;;;;;;12.77;6.93;;;;;;;;;;6191316;23;20013;-87
2023/05/20 02:05:14;;;;;;;11.50;6.50;;;;;;;;;;6164431;23;20017;-88
2023/05/20 02:07:40;;;;;;;17.25;6.53;;;;;;;;;;6139785;23;20091;-88
2023/05/20 02:10:06;;;;;;;14.68;7.03;;;;;;;;;;6163155;23;20020;-88
2023/05/20 02:12:32;;;;;;;13.20;7.13;;;;;;;;;;6164412;23;20012;-86
2023/05/20 02:14:58;;;;;;;15.23;7.15;;;;;;;;;;6189950;23;20084;-88
2023/05/20 02:17:25;;;;;;;10.73;5.95;;;;;;;;;;6162890;23;20107;-88
2023/05/20 02:19:51;;;;;;;11.80;6.03;;;;;;;;;;6164298;23;20103;-88
2023/05/20 02:22:17;;;;;;;12.77;6.72;;;;;;;;;;6163735;23;20451;-88
2023/05/20 02:24:44;;;;;;;12.35;6.40;;;;;;;;;;6190536;23;20049;-88
2023/05/20 02:27:10;;;;;;;11.88;5.90;;;;;;;;;;6190563;23;20047;-87
2023/05/20 02:29:36;;;;;;;11.07;6.88;;;;;;;;;;6190378;23;20017;-88
2023/05/20 02:32:02;;;;;;;11.88;6.90;;;;;;;;;;6138986;23;20036;-88
2023/05/20 02:34:29;;;;;;;15.32;6.30;;;;;;;;;;6189335;23;20033;-89
2023/05/20 02:36:55;;;;;;;15.25;7.22;;;;;;;;;;6163664;23;20017;-88
2023/05/20 02:39:21;;;;;;;16.45;6.28;;;;;;;;;;6140093;23;20013;-87
2023/05/20 02:41:47;;;;;;;11.80;6.60;;;;;;;;;;6162545;23;20105;-88
2023/05/20 02:44:14;;;;;;;12.20;6.72;;;;;;;;;;6190100;23;20064;-86
2023/05/20 02:46:40;;;;;;;11.55;5.95;;;;;;;;;;6189471;23;20017;-88
2023/05/20 02:49:06;;;;;;;11.27;5.82;;;;;;;;;;6164011;23;20349;-88
2023/05/20 02:51:32;;;;;;;11.90;6.68;;;;;;;;;;6189489;23;20028;-88
2023/05/20 02:53:58;;;;;;;10.50;6.53;;;;;;;;;;6163839;23;20025;-87
2023/05/20 02:56:25;;;;;;;12.63;6.63;;;;;;;;;;6163354;23;20340;-88
2023/05/20 02:58:51;;;;;;;15.65;7.07;;;;;;;;;;6189008;23;20025;-88
2023/05/20 03:01:17;;;;;;;15.65;6.53;;;;;;;;;;6164678;23;20051;-89
2023/05/20 03:03:43;;;;;;;10.93;7.03;;;;;;;;;;6164309;23;20039;-88
2023/05/20 03:06:09;;;;;;;12.77;7.05;;;;;;;;;;6190290;23;20024;-88
2023/05/20 03:08:35;;;;;;;14.27;6.68;;;;;;;;;;6162970;23;20043;-87
2023/05/20 03:11:01;;;;;;;12.40;6.93;;;;;;;;;;6163796;23;20360;-88
2023/05/20 03:13:28;;;;;;;9.90;6.43;;;;;;;;;;6189092;23;20400;-88
2023/05/20 03:15:54;;;;;;;14.05;5.90;;;;;;;;;;6163275;23;20017;-88
2023/05/20 03:18:20;;;;;;;11.38;6.47;;;;;;;;;;6189599;23;20021;-88
2023/05/20 03:20:49;;;;;;;11.88;6.20;;;;;;;;;;6138806;23;20009;-87
2023/05/20 03:23:15;;;;;;;11.63;6.20;;;;;;;;;;6189590;23;20020;-88
2023/05/20 03:25:41;;;;;;;12.20;6.68;;;;;;;;;;6189245;23;20391;-88
2023/05/20 03:28:07;;;;;;;18.50;6.63;;;;;;;;;;6163093;23;20013;-87
2023/05/20 03:30:33;;;;;;;12.88;6.50;;;;;;;;;;6162841;23;20057;-88
2023/05/20 03:32:59;;;;;;;13.27;6.35;;;;;;;;;;6163132;23;20017;-88
2023/05/20 03:35:25;;;;;;;11.07;6.05;;;;;;;;;;6189798;23;20044;-87
2023/05/20 03:37:52;;;;;;;8.48;5.40;;;;;;;;;;6163291;23;20151;-88
2023/05/20 03:40:19;;;;;;;9.00;6.05;;;;;;;;;;6163101;23;20017;-88
2023/05/20 03:42:45;;;;;;;12.57;6.20;;;;;;;;;;6137831;23;20217;-87
2023/05/20 03:45:11;;;;;;;12.55;5.80;;;;;;;;;;6190326;23;20016;-88
2023/05/20 03:47:37;;;;;;;10.75;5.40;;;;;;;;;;6162640;23;20048;-88
2023/05/20 03:50:03;;;;;;;11.07;5.65;;;;;;;;;;6163545;23;20069;-87
2023/05/20 03:52:30;;;;;;;6.70;4.93;;;;;;;;;;6162751;23;20448;-88
2023/05/20 03:54:56;;;;;;;10.05;5.38;;;;;;;;;;6189550;23;20013;-88
2023/05/20 03:57:22;;;;;;;10.95;5.13;;;;;;;;;;6188891;23;20159;-88
2023/05/20 03:59:48;;;;;;;10.57;5.47;;;;;;;;;;6138709;23;20302;-87
2023/05/20 04:02:14;;;;;;;11.90;4.72;;;;;;;;;;6138978;23;20051;-88
2023/05/20 04:04:42;;;;;;;8.05;4.30;;;;;;;;;;6162577;23;20029;-88
2023/05/20 04:07:08;;;;;;;16.70;4.63;;;;;;;;;;6190748;23;20044;-88
2023/05/20 04:09:34;;;;;;;9.80;4.95;;;;;;;;;;6165565;23;20096;-87
2023/05/20 04:12:00;;;;;;;8.75;4.72;;;;;;;;;;6192286;23;20109;-88
2023/05/20 04:14:26;;;;;;;7.93;4.30;;;;;;;;;;6165998;23;20143;-88
2023/05/20 04:16:52;;;;;;;11.85;4.25;;;;;;;;;;6165492;23;20013;-88
2023/05/20 04:19:18;;;;;;;9.57;7.15;;;;;;;;;;6165498;23;20035;-88
2023/05/20 04:21:44;;;;;;;9.85;4.53;;;;;;;;;;6164661;23;20012;-88
2023/05/20 04:24:10;;;;;;;8.60;4.38;;;;;;;;;;6140675;23;20095;-88
2023/05/20 04:26:37;;;;;;;9.82;4.43;;;;;;;;;;6166003;23;20028;-88
2023/05/20 04:29:03;;;;;;;8.25;5.03;;;;;;;;;;6190898;23;20300;-87
2023/05/20 04:31:30;;;;;;;7.90;4.43;;;;;;;;;;6139534;23;20040;-87
2023/05/20 04:33:57;;;;;;;6.55;3.80;;;;;;;;;;6191408;23;20017;-86
2023/05/20 04:36:27;;;;;;;6.72;4.47;;;;;;;;;;6190964;23;20013;-89
2023/05/20 04:38:56;;;;;;;5.63;4.05;;;;;;;;;;6164826;23;20017;-87
2023/05/20 04:41:23;;;;;;;9.30;4.20;;;;;;;;;;6190506;23;20091;-87
2023/05/20 04:43:49;;;;;;;6.18;3.53;;;;;;;;;;6164949;23;20044;-90
2023/05/20 04:46:15;;;;;;;6.85;3.30;;;;;;;;;;6190707;23;20036;-85
2023/05/20 04:48:42;;;;;;;8.30;3.90;;;;;;;;;;6139415;23;20028;-86
2023/05/20 04:51:08;;;;;;;6.18;3.28;;;;;;;;;;6162221;23;20076;-85
2023/05/20 04:53:35;;;;;;;6.75;3.53;;;;;;;;;;6189403;23;20020;-88
2023/05/20 04:56:02;;;;;;;6.05;3.30;;;;;;;;;;6162466;23;20044;-87
2023/05/20 04:58:29;;;;;;;11.07;2.92;;;;;;;;;;6188804;23;20159;-87
2023/05/20 05:00:55;;;;;;;6.18;3.38;;;;;;;;;;6189228;23;20099;-87
2023/05/20 05:03:21;;;;;;;289.10;266.70;;;;;;;;;;6138166;23;20108;-87
2023/05/20 05:05:47;;;;;;;4.63;3.10;;;;;;;;;;6162839;23;20032;-87
2023/05/20 05:08:13;;;;;;;7.65;2.80;;;;;;;;;;6162662;23;20031;-87
2023/05/20 05:10:40;;;;;;;6.93;2.92;;;;;;;;;;6189386;23;20017;-85
2023/05/20 05:13:06;;;;;;;7.35;3.10;;;;;;;;;;6188918;23;20029;-87
2023/05/20 05:15:32;;;;;;;7.20;3.17;;;;;;;;;;6162258;23;20021;-87
2023/05/20 05:17:58;;;;;;;4.95;2.50;;;;;;;;;;6187925;23;20021;-86
2023/05/20 05:20:24;;;;;;;6.97;2.85;;;;;;;;;;6163719;23;20036;-87
2023/05/20 05:22:49;;;;;;;3.85;2.25;;;;;;;;;;6186659;23;20096;-83
2023/05/20 05:25:16;;;;;;;4.65;2.65;;;;;;;;;;6157590;23;20433;-83
2023/05/20 05:27:43;;;;;;;5.93;2.90;;;;;;;;;;6184400;23;20039;-83
2023/05/20 05:30:09;;;;;;;5.78;2.67;;;;;;;;;;6158443;23;20043;-83
2023/05/20 05:32:36;;;;;;;7.72;2.72;;;;;;;;;;6158183;23;20013;-84
2023/05/20 05:35:02;;;;;;;6.40;2.42;;;;;;;;;;6157994;23;20079;-84
2023/05/20 05:37:28;;;;;;;4.32;2.33;;;;;;;;;;6158075;23;20009;-84
2023/05/20 05:39:54;;;;;;;6.20;2.15;;;;;;;;;;6158593;23;20035;-84
2023/05/20 05:42:20;;;;;;;3.72;2.05;;;;;;;;;;6184800;23;20016;-84
2023/05/20 05:44:47;;;;;;;4.97;2.03;;;;;;;;;;6184675;23;20019;-84
2023/05/20 05:47:13;;;;;;;5.10;2.53;;;;;;;;;;6132276;23;20017;-84
2023/05/20 05:49:39;;;;;;;5.68;2.28;;;;;;;;;;6156640;23;20024;-85
2023/05/20 05:52:05;;;;;;;3.97;1.73;;;;;;;;;;6156264;23;20013;-84
2023/05/20 05:54:32;;;;;;;2.95;1.58;;;;;;;;;;6183451;23;20013;-85
2023/05/20 05:56:58;;;;;;;5.28;1.85;;;;;;;;;;6132241;23;20021;-84
2023/05/20 05:59:24;;;;;;;7.50;1.83;;;;;;;;;;6132149;23;20108;-84
2023/05/20 06:01:50;;;;;;;15.65;1.88;;;;;;;;;;6156598;23;20027;-85
2023/05/20 06:04:16;;;;;;;4.25;1.70;;;;;;;;;;6183297;23;20068;-85
2023/05/20 06:06:42;;;;;;;10.70;2.00;;;;;;;;;;6131619;23;20017;-85
2023/05/20 06:09:08;;;;;;;3.78;1.52;;;;;;;;;;6132174;23;20023;-86
2023/05/20 06:11:34;;;;;;;4.03;1.55;;;;;;;;;;6132100;23;20009;-86
2023/05/20 06:14:00;;;;;;;1651.60;642.95;;;;;;;;;;6131938;23;20036;-88
2023/05/20 06:16:26;;;;;;;1999.90;999.90;;;;;;;;;;6156827;23;20031;-87
2023/05/20 06:18:55;;;;;;;3.55;1.50;;;;;;;;;;6156932;23;20189;-88
2023/05/20 06:21:22;;;;;;;5.80;1.70;;;;;;;;;;6156380;23;20020;-87
2023/05/20 06:23:48;;;;;;;6.07;1.90;;;;;;;;;;6131280;23;20039;-87
2023/05/20 06:26:14;;;;;;;81.80;22.08;;;;;;;;;;6156159;23;20013;-88
2023/05/20 06:28:40;;;;;;;8.23;1.83;;;;;;;;;;6132519;23;20024;-87
2023/05/20 06:31:05;;;;;;;4.60;1.70;;;;;;;;;;6156300;23;20019;-87
2023/05/20 06:33:31;;;;;;;4.90;1.60;;;;;;;;;;6132064;23;20068;-87
2023/05/20 06:35:58;;;;;;;3.22;1.63;;;;;;;;;;6155966;23;20017;-87
2023/05/20 06:38:24;;;;;;;5.25;1.50;;;;;;;;;;6156950;23;20463;-87
2023/05/20 06:40:50;;;;;;;3.15;1.80;;;;;;;;;;6132329;23;20482;-87
2023/05/20 06:43:18;;;;;;;2.63;1.52;;;;;;;;;;6183504;23;20020;-87
2023/05/20 06:45:45;;;;;;;6.15;1.60;;;;;;;;;;6156845;23;20432;-83
2023/05/20 06:48:11;;;;;;;3.33;1.30;;;;;;;;;;6157142;23;20048;-86
2023/05/20 06:50:37;;;;;;;4.95;1.70;;;;;;;;;;6155753;23;20017;-87
2023/05/20 06:53:03;;;;;;;4.18;1.73;;;;;;;;;;6156519;23;20017;-88
2023/05/20 06:55:29;;;;;;;5.40;1.70;;;;;;;;;;6156886;23;20503;-86
2023/05/20 06:57:55;;;;;;;3.80;1.80;;;;;;;;;;6156952;23;20013;-86
2023/05/20 07:00:24;;;;;;;5.25;1.75;;;;;;;;;;6132584;23;20064;-87
2023/05/20 07:02:50;;;;;;;25.92;7.32;;;;;;;;;;6131686;23;20395;-87
2023/05/20 07:05:16;;;;;;;1999.90;999.90;;;;;;;;;;6155728;23;20560;-87
2023/05/20 07:07:42;;;;;;;1535.28;391.83;;;;;;;;;;6132120;23;20020;-86
2023/05/20 07:10:09;;;;;;;1999.90;999.90;;;;;;;;;;6131392;23;20009;-84
2023/05/20 07:12:35;;;;;;;1999.90;999.90;;;;;;;;;;6131151;23;20009;-83
2023/05/20 07:15:01;;;;;;;1999.90;999.90;;;;;;;;;;6155644;23;20017;-86
2023/05/20 07:17:31;;;;;;;1999.90;999.90;;;;;;;;;;6155561;23;20032;-83
2023/05/20 07:19:57;;;;;;;1999.90;999.90;;;;;;;;;;6131178;23;20348;-87
2023/05/20 07:22:25;;;;;;;1999.90;999.90;;;;;;;;;;6156385;23;20478;-90
2023/05/20 07:24:51;;;;;;;1999.90;999.90;;;;;;;;;;6131977;23;20009;-88
2023/05/20 07:27:17;;;;;;;1999.90;999.90;;;;;;;;;;6156794;23;20456;-89
2023/05/20 07:29:43;;;;;;;1999.90;999.90;;;;;;;;;;6131960;23;20020;-89
2023/05/20 07:32:10;;;;;;;1999.90;999.90;;;;;;;;;;6132877;23;20012;-88
2023/05/20 07:34:36;;;;;;;1999.90;999.90;;;;;;;;;;6156594;23;20040;-89
2023/05/20 07:37:03;;;;;;;1999.90;999.90;;;;;;;;;;6157573;23;20016;-89
2023/05/20 07:39:28;;;;;;;1999.90;999.90;;;;;;;;;;6132749;23;20013;-89
2023/05/20 07:41:57;;;;;;;1999.90;999.90;;;;;;;;;;6157019;23;20013;-87
2023/05/20 07:44:23;;;;;;;1999.90;999.90;;;;;;;;;;6155508;23;20089;-87
2023/05/20 07:46:49;;;;;;;1999.90;999.90;;;;;;;;;;6154428;23;20071;-89
2023/05/20 07:49:15;;;;;;;1999.90;999.90;;;;;;;;;;6154314;23;20088;-88
2023/05/20 07:51:41;;;;;;;1999.90;999.90;;;;;;;;;;6154547;23;20009;-87
2023/05/20 07:54:07;;;;;;;1999.90;999.90;;;;;;;;;;6154617;23;20104;-88
2023/05/20 07:56:33;;;;;;;117.82;41.75;;;;;;;;;;6130084;23;20013;-88
2023/05/20 07:59:00;;;;;;;157.00;146.52;;;;;;;;;;6181788;23;20019;-86
2023/05/20 08:01:26;;;;;;;36.97;34.50;;;;;;;;;;6156752;23;20020;-88
2023/05/20 08:03:53;;;;;;;149.18;39.85;;;;;;;;;;6131462;23;20020;-88
2023/05/20 08:06:19;;;;;;;459.05;171.35;;;;;;;;;;6156745;23;20024;-88
2023/05/20 08:08:45;;;;;;;1027.07;926.67;;;;;;;;;;6156704;23;20009;-87
2023/05/20 08:11:12;;;;;;;884.78;813.28;;;;;;;;;;6156534;23;20020;-88
2023/05/20 08:13:38;;;;;;;821.95;756.97;;;;;;;;;;6131731;23;20059;-87
2023/05/20 08:16:08;;;;;;;578.38;537.30;;;;;;;;;;6131161;23;20091;-88
2023/05/20 08:18:35;;;;;;;899.65;826.08;;;;;;;;;;6132268;23;20021;-88
2023/05/20 08:21:02;;;;;;;1083.90;967.63;;;;;;;;;;6132306;23;20032;-88
2023/05/20 08:23:28;;;;;;;491.77;446.50;;;;;;;;;;6156823;23;20080;-88
2023/05/20 08:25:56;;;;;;;17.58;16.02;;;;;;;;;;6182718;23;20020;-88
2023/05/20 08:28:22;;;;;;;17.77;16.27;;;;;;;;;;6156174;23;20013;-88
2023/05/20 08:30:48;;;;;;;14.15;13.20;;;;;;;;;;6131425;23;20036;-87
2023/05/20 08:33:15;;;;;;;8.98;8.15;;;;;;;;;;6182798;23;20087;-87
2023/05/20 08:35:41;;;;;;;101.70;96.07;;;;;;;;;;6156339;23;20019;-87
2023/05/20 08:38:07;;;;;;;24.00;22.25;;;;;;;;;;6156205;23;20013;-87
2023/05/20 08:40:36;;;;;;;16.35;11.02;;;;;;;;;;6131276;23;20049;-88
2023/05/20 08:43:02;;;;;;;33.40;31.20;;;;;;;;;;6131474;23;20071;-87
2023/05/20 08:45:31;;;;;;;6.53;4.53;;;;;;;;;;6130987;23;20017;-88
2023/05/20 08:47:57;;;;;;;6.05;3.25;;;;;;;;;;6131516;23;20017;-88
2023/05/20 08:50:23;;;;;;;5.72;3.97;;;;;;;;;;6182970;23;20025;-87
2023/05/20 08:52:49;;;;;;;4.97;3.95;;;;;;;;;;6156708;23;20092;-88
2023/05/20 08:55:21;;;;;;;6.55;4.75;;;;;;;;;;6132765;23;20079;-88
2023/05/20 08:57:47;;;;;;;19.92;18.40;;;;;;;;;;6133259;23;20021;-87
2023/05/20 09:00:15;;;;;;;59.55;30.45;;;;;;;;;;6157448;23;20059;-87
2023/05/20 09:02:41;;;;;;;4.93;2.10;;;;;;;;;;6133474;23;20140;-87
2023/05/20 09:05:10;;;;;;;5.82;3.58;;;;;;;;;;6158051;23;20017;-87
2023/05/20 09:07:36;;;;;;;6.75;2.72;;;;;;;;;;6184797;23;20009;-88
2023/05/20 09:10:02;;;;;;;6.65;2.30;;;;;;;;;;6157439;23;20104;-88
2023/05/20 09:12:29;;;;;;;6.97;2.55;;;;;;;;;;6157733;23;20063;-88
2023/05/20 09:14:55;;;;;;;8.52;2.22;;;;;;;;;;6132449;23;20449;-87
2023/05/20 09:17:21;;;;;;;5.10;2.50;;;;;;;;;;6157587;23;20017;-87
2023/05/20 09:19:50;;;;;;;4.03;2.53;;;;;;;;;;6184264;23;20033;-87
2023/05/20 09:22:21;;;;;;;6.15;2.60;;;;;;;;;;6157627;23;20475;-87
2023/05/20 09:24:48;;;;;;;4.68;2.22;;;;;;;;;;6184436;23;20091;-88
2023/05/20 09:27:14;;;;;;;7.20;2.33;;;;;;;;;;6133041;23;20009;-87
2023/05/20 09:29:40;;;;;;;3.97;2.25;;;;;;;;;;6132629;23;20088;-87
2023/05/20 09:32:06;;;;;;;4.00;2.30;;;;;;;;;;6185123;23;20017;-86
2023/05/20 09:34:32;;;;;;;7.28;2.50;;;;;;;;;;6137441;23;20017;-87
2023/05/20 09:36:58;;;;;;;4.88;2.15;;;;;;;;;;6137378;23;20020;-88
2023/05/20 09:39:25;;;;;;;5.63;2.20;;;;;;;;;;6137783;23;20009;-86
2023/05/20 09:41:56;;;;;;;6.40;3.08;;;;;;;;;;6137559;23;20017;-85
2023/05/20 09:44:22;;;;;;;6.53;2.35;;;;;;;;;;6158116;23;20024;-82
2023/05/20 09:46:51;;;;;;;4.80;2.75;;;;;;;;;;6133570;23;20117;-81
2023/05/20 09:49:18;;;;;;;4.38;2.40;;;;;;;;;;6157677;23;20028;-84
2023/05/20 09:51:45;;;;;;;8.90;2.47;;;;;;;;;;6157846;23;20009;-82
2023/05/20 09:54:11;;;;;;;5.45;2.38;;;;;;;;;;6157697;23;20017;-82
2023/05/20 09:56:38;;;;;;;4.03;2.42;;;;;;;;;;6183826;23;20013;-82
2023/05/20 09:59:05;;;;;;;81.82;6.78;;;;;;;;;;6183217;23;20035;-80
2023/05/20 10:01:31;;;;;;;4.63;2.70;;;;;;;;;;6157593;23;20393;-83
2023/05/20 10:03:57;;;;;;;4.95;2.75;;;;;;;;;;6136532;23;20345;-84
2023/05/20 10:06:46;;;;;;;4.95;2.58;;;;;;;;;;6161511;23;20186;-84
2023/05/20 10:09:24;;;;;;;8.15;2.80;;;;;;;;;;6186816;23;20032;-83
2023/05/20 10:12:09;;;;;;;9.95;2.67;;;;;;;;;;6187069;23;20432;-84
2023/05/20 10:14:38;;;;;;;6.45;2.55;;;;;;;;;;6188385;23;20013;-85
2023/05/20 10:17:08;;;;;;;12.15;2.97;;;;;;;;;;6187659;23;20444;-84
2023/05/20 10:19:35;;;;;;;8.07;3.17;;;;;;;;;;6161443;23;20013;-84
2023/05/20 10:22:02;;;;;;;4.97;2.92;;;;;;;;;;6160421;23;20021;-84
2023/05/20 10:24:32;;;;;;;4.68;2.75;;;;;;;;;;6187460;23;20028;-84
2023/05/20 10:27:00;;;;;;;11.35;3.00;;;;;;;;;;6187303;23;20096;-85
2023/05/20 10:29:26;;;;;;;6.43;2.90;;;;;;;;;;6161228;23;20092;-84
2023/05/20 10:31:52;;;;;;;9.20;2.85;;;;;;;;;;6159413;23;20028;-85
2023/05/20 10:34:20;;;;;;;6.55;3.10;;;;;;;;;;6188205;23;20021;-86
2023/05/20 10:37:06;;;;;;;49.38;9.00;;;;;;;;;;6160042;23;20256;-83
2023/05/20 10:39:33;;;;;;;1999.90;999.90;;;;;;;;;;6159831;23;20124;-84
2023/05/20 10:42:09;;;;;;;1999.90;999.90;;;;;;;;;;6186350;23;20020;-86
2023/05/20 10:44:45;;;;;;;1999.90;999.90;;;;;;;;;;6160217;23;20099;-83
2023/05/20 10:47:11;;;;;;;1999.90;999.90;;;;;;;;;;6157808;23;20021;-83
2023/05/20 10:49:55;;;;;;;1999.90;999.90;;;;;;;;;;6156437;23;20031;-84
2023/05/20 10:52:21;;;;;;;1999.90;999.90;;;;;;;;;;6156123;23;20075;-84
2023/05/20 10:54:53;;;;;;;22.30;20.40;;;;;;;;;;6156117;23;20353;-84
2023/05/20 10:57:20;;;;;;;25.23;23.55;;;;;;;;;;6182379;23;20013;-82
2023/05/20 10:59:46;;;;;;;15.68;14.50;;;;;;;;;;6156574;23;20031;-85
2023/05/20 11:02:14;;;;;;;23.88;21.88;;;;;;;;;;6131633;23;20575;-83
2023/05/20 11:04:42;;;;;;;20.73;19.30;;;;;;;;;;6156139;23;20021;-84
2023/05/20 11:07:09;;;;;;;8.50;7.75;;;;;;;;;;6156314;23;20068;-83
2023/05/20 11:09:35;;;;;;;12.65;4.88;;;;;;;;;;6182802;23;20013;-83
2023/05/20 11:12:01;;;;;;;7.00;3.10;;;;;;;;;;6130636;23;20071;-83
2023/05/20 11:14:28;;;;;;;5.50;2.55;;;;;;;;;;6182640;23;20284;-84
2023/05/20 11:16:58;;;;;;;6.85;2.53;;;;;;;;;;6155590;23;20453;-84
2023/05/20 11:19:25;;;;;;;6.28;2.40;;;;;;;;;;6181615;23;20441;-83
2023/05/20 11:21:51;;;;;;;6.95;2.25;;;;;;;;;;6156079;23;20057;-84
2023/05/20 11:24:27;;;;;;;5.90;2.60;;;;;;;;;;6182502;23;20229;-84
2023/05/20 11:26:54;;;;;;;4.93;2.38;;;;;;;;;;6181706;23;20021;-84
2023/05/20 11:29:21;;;;;;;4.10;2.33;;;;;;;;;;6131528;23;20044;-84
2023/05/20 11:31:50;;;;;;;7.55;2.45;;;;;;;;;;6182644;23;20079;-84
2023/05/20 11:34:19;;;;;;;5.63;2.45;;;;;;;;;;6156231;23;20348;-86
2023/05/20 11:36:45;;;;;;;4.70;2.13;;;;;;;;;;6156110;23;20016;-84
2023/05/20 11:39:12;;;;;;;7.10;2.60;;;;;;;;;;6155775;23;20009;-85
2023/05/20 11:41:38;;;;;;;5.90;2.63;;;;;;;;;;6131472;23;20016;-84
2023/05/20 11:44:10;;;;;;;6.57;2.28;;;;;;;;;;6156158;23;20051;-85
2023/05/20 11:46:40;;;;;;;6.57;2.47;;;;;;;;;;6156072;23;20013;-85
2023/05/20 11:49:07;;;;;;;6.78;2.63;;;;;;;;;;6183058;23;20020;-84
2023/05/20 11:51:33;;;;;;;5.22;2.28;;;;;;;;;;6156413;23;20110;-84
2023/05/20 11:54:00;;;;;;;5.88;2.15;;;;;;;;;;6181955;23;20017;-86
2023/05/20 11:56:29;;;;;;;6.00;2.10;;;;;;;;;;6182782;23;20016;-85
2023/05/20 11:58:57;;;;;;;6.55;2.25;;;;;;;;;;6156639;23;20020;-88
2023/05/20 12:01:23;;;;;;;6.82;2.55;;;;;;;;;;6131736;23;20408;-86
2023/05/20 12:03:49;;;;;;;6.43;2.22;;;;;;;;;;6156806;23;20021;-86
2023/05/20 12:06:16;;;;;;;4.50;2.25;;;;;;;;;;6156304;23;20036;-87
2023/05/20 12:08:42;;;;;;;4.80;2.35;;;;;;;;;;6155638;23;20099;-86
2023/05/20 12:11:08;;;;;;;4.13;2.40;;;;;;;;;;6155893;23;20029;-86
2023/05/20 12:13:34;;;;;;;6.10;2.72;;;;;;;;;;6156605;23;20028;-88
2023/05/20 12:16:00;;;;;;;4.75;2.50;;;;;;;;;;6182673;23;20017;-86
2023/05/20 12:18:26;;;;;;;4.97;2.20;;;;;;;;;;6156515;23;20067;-87
2023/05/20 12:20:52;;;;;;;6.78;2.58;;;;;;;;;;6156263;23;20069;-86
2023/05/20 12:23:19;;;;;;;6.47;2.30;;;;;;;;;;6182549;23;20069;-86
2023/05/20 12:25:46;;;;;;;4.72;2.20;;;;;;;;;;6156230;23;20291;-87
2023/05/20 12:28:12;;;;;;;7.20;2.97;;;;;;;;;;6182452;23;20387;-86
2023/05/20 12:30:38;;;;;;;4.05;2.58;;;;;;;;;;6157191;23;20452;-86
2023/05/20 12:33:04;;;;;;;9.95;2.35;;;;;;;;;;6157264;23;20067;-86
2023/05/20 12:35:37;;;;;;;6.43;2.60;;;;;;;;;;6157538;23;20023;-84
2023/05/20 12:38:03;;;;;;;6.10;2.60;;;;;;;;;;6156756;23;20101;-83
2023/05/20 12:40:29;;;;;;;5.22;2.20;;;;;;;;;;6183993;23;20053;-83
2023/05/20 12:42:55;;;;;;;5.13;2.17;;;;;;;;;;6132804;23;20013;-84
2023/05/20 12:45:21;;;;;;;7.05;2.42;;;;;;;;;;6157286;23;20448;-85
2023/05/20 12:47:47;;;;;;;4.38;2.30;;;;;;;;;;6184129;23;20065;-85
2023/05/20 12:50:13;;;;;;;9.63;2.35;;;;;;;;;;6157436;23;20045;-82
2023/05/20 12:52:39;;;;;;;7.70;2.53;;;;;;;;;;6156607;23;20020;-81
2023/05/20 12:55:12;;;;;;;7.30;2.45;;;;;;;;;;6157346;23;20017;-83
2023/05/20 12:57:38;;;;;;;7.00;2.45;;;;;;;;;;6132796;23;20456;-84
2023/05/20 13:00:05;;;;;;;9.20;2.85;;;;;;;;;;6132363;23;20016;-84
2023/05/20 13:02:31;;;;;;;7.00;2.60;;;;;;;;;;6132714;23;20015;-85
2023/05/20 13:04:57;;;;;;;5.47;2.58;;;;;;;;;;6183888;23;20388;-84
2023/05/20 13:07:24;;;;;;;4.60;2.45;;;;;;;;;;6183233;23;20016;-85
2023/05/20 13:09:50;;;;;;;3.67;2.15;;;;;;;;;;6157169;23;20017;-86
2023/05/20 13:12:16;;;;;;;8.00;2.20;;;;;;;;;;6183609;23;20021;-86
2023/05/20 13:14:42;;;;;;;7.80;2.40;;;;;;;;;;6156953;23;20301;-86
2023/05/20 13:17:08;;;;;;;14.98;5.80;;;;;;;;;;6183111;23;20017;-84
2023/05/20 13:19:34;;;;;;;8.75;3.08;;;;;;;;;;6156915;23;20013;-84
2023/05/20 13:22:01;;;;;;;7.38;2.92;;;;;;;;;;6156347;23;20015;-85
2023/05/20 13:24:27;;;;;;;14.40;2.90;;;;;;;;;;6183882;23;20036;-83
2023/05/20 13:26:53;;;;;;;4.60;2.40;;;;;;;;;;6132297;23;20381;-85
2023/05/20 13:29:19;;;;;;;11.70;2.67;;;;;;;;;;6132542;23;20017;-84
2023/05/20 13:31:45;;;;;;;5.25;2.70;;;;;;;;;;6132439;23;20015;-83
2023/05/20 13:34:11;;;;;;;6.00;2.42;;;;;;;;;;6183284;23;20088;-84
2023/05/20 13:36:37;;;;;;;6.50;2.72;;;;;;;;;;6156797;23;20016;-85
2023/05/20 13:39:03;;;;;;;7.97;2.67;;;;;;;;;;6156966;23;20013;-85
2023/05/20 13:41:29;;;;;;;9.13;2.55;;;;;;;;;;6156306;23;20013;-85
2023/05/20 13:43:55;;;;;;;5.93;2.67;;;;;;;;;;6157155;23;20052;-82
2023/05/20 13:46:21;;;;;;;4.38;2.60;;;;;;;;;;6157094;23;20028;-85
2023/05/20 13:48:47;;;;;;;8.00;2.83;;;;;;;;;;6132582;23;20032;-85
2023/05/20 13:51:13;;;;;;;5.45;2.72;;;;;;;;;;6155956;23;20079;-86
2023/05/20 13:53:39;;;;;;;11.98;2.53;;;;;;;;;;6155082;23;20013;-84
2023/05/20 13:56:08;;;;;;;6.35;2.28;;;;;;;;;;6157152;23;20043;-87
2023/05/20 13:58:34;;;;;;;5.53;2.72;;;;;;;;;;6157257;23;20017;-84
2023/05/20 14:01:00;;;;;;;6.38;2.40;;;;;;;;;;6156189;23;20017;-86
2023/05/20 14:03:26;;;;;;;7.13;2.33;;;;;;;;;;6155175;23;20097;-85
2023/05/20 14:05:53;;;;;;;6.53;2.40;;;;;;;;;;6153506;23;20099;-84
2023/05/20 14:08:19;;;;;;;6.20;2.50;;;;;;;;;;6181206;23;20084;-81
2023/05/20 14:10:45;;;;;;;3.90;2.50;;;;;;;;;;6180576;23;20017;-80
2023/05/20 14:13:11;;;;;;;4.90;2.45;;;;;;;;;;6129310;23;20400;-82
2023/05/20 14:15:40;;;;;;;5.28;2.53;;;;;;;;;;6129837;23;20451;-83
2023/05/20 14:18:06;;;;;;;5.97;2.30;;;;;;;;;;6131488;23;20013;-83
2023/05/20 14:20:32;;;;;;;4.85;2.20;;;;;;;;;;6155746;23;20013;-82
2023/05/20 14:23:00;;;;;;;5.25;2.60;;;;;;;;;;6156344;23;20009;-82
2023/05/20 14:25:26;;;;;;;9.63;2.40;;;;;;;;;;6156650;23;20068;-81
2023/05/20 14:27:53;;;;;;;6.93;2.42;;;;;;;;;;6183093;23;20371;-80